Time;durP1;ratioP1;P1;durP2;ratioP2;P2;SDS_P1;SDS_P2;PMS_P1;PMS_P2;Temp;Humidity;BMP_temperature;BMP_pressure;BME280_temperature;BME280_humidity;BME280_pressure;Samples;Min_cycle;Max_cycle;Signal;HPM_P1;HPM_P2
2021/12/27 00:01:33;;;;;;;1.75;1.63;;;-0.10;99.90;;;;;;5028619;28;20743;-76
2021/12/27 00:03:59;;;;;;;10.50;4.43;;;-0.10;99.90;;;;;;5030955;28;20508;-77
2021/12/27 00:06:24;;;;;;;11.10;7.32;;;-0.10;99.90;;;;;;5047150;28;20151;-76
2021/12/27 00:08:52;;;;;;;5.60;4.10;;;-0.10;99.90;;;;;;5049324;28;20052;-76
2021/12/27 00:11:18;;;;;;;11.60;6.22;;;0.00;99.90;;;;;;5048066;28;20040;-77
2021/12/27 00:13:44;;;;;;;3.10;2.00;;;0.00;99.90;;;;;;5063130;28;20041;-76
2021/12/27 00:16:10;;;;;;;9.48;5.53;;;-0.10;99.90;;;;;;5044096;28;20056;-76
2021/12/27 00:18:37;;;;;;;7.03;5.07;;;0.00;99.90;;;;;;5026110;28;20493;-77
2021/12/27 00:21:04;;;;;;;5.40;3.83;;;0.00;99.90;;;;;;5034321;28;20092;-76
2021/12/27 00:23:30;;;;;;;12.45;7.38;;;0.00;99.90;;;;;;5028679;28;20053;-76
2021/12/27 00:25:55;;;;;;;13.75;6.85;;;0.00;99.90;;;;;;5048352;28;20033;-76
2021/12/27 00:28:21;;;;;;;9.02;6.32;;;0.00;99.90;;;;;;5029360;28;20412;-76
2021/12/27 00:30:47;;;;;;;9.57;4.93;;;0.00;99.90;;;;;;5043414;28;20055;-76
2021/12/27 00:33:14;;;;;;;8.50;6.10;;;0.00;99.90;;;;;;5048429;28;20131;-76
2021/12/27 00:35:40;;;;;;;14.63;8.07;;;0.00;99.90;;;;;;5047108;28;20405;-75
2021/12/27 00:38:07;;;;;;;12.15;6.22;;;0.00;99.90;;;;;;5048806;28;20078;-75
2021/12/27 00:40:34;;;;;;;12.20;6.75;;;-0.10;99.90;;;;;;5031452;28;20060;-76
2021/12/27 00:42:59;;;;;;;10.60;6.68;;;0.00;99.90;;;;;;5047493;28;20094;-76
2021/12/27 00:45:25;;;;;;;12.10;6.45;;;0.00;99.90;;;;;;5046036;28;20373;-75
2021/12/27 00:47:51;;;;;;;4.07;3.25;;;-0.10;99.90;;;;;;5031069;28;20055;-75
2021/12/27 00:50:18;;;;;;;15.82;6.25;;;-0.10;99.90;;;;;;5051617;28;20056;-76
2021/12/27 00:52:45;;;;;;;12.77;5.95;;;-0.10;99.90;;;;;;5051045;28;20045;-76
2021/12/27 00:55:15;;;;;;;6.53;3.95;;;-0.20;99.90;;;;;;5049310;28;20102;-75
2021/12/27 00:57:41;;;;;;;14.73;7.00;;;-0.20;99.90;;;;;;5033784;28;20044;-76
2021/12/27 01:00:10;;;;;;;10.38;6.22;;;-0.20;99.90;;;;;;5050275;28;20124;-76
2021/12/27 01:02:35;;;;;;;12.15;6.03;;;-0.20;99.90;;;;;;5047765;28;20033;-76
2021/12/27 01:05:01;;;;;;;8.00;5.45;;;-0.30;99.90;;;;;;5031755;28;20041;-76
2021/12/27 01:07:27;;;;;;;3.85;2.72;;;-0.30;99.90;;;;;;5032821;28;20382;-76
2021/12/27 01:10:18;;;;;;;4.70;2.67;;;-0.30;99.90;;;;;;5050533;28;20049;-76
2021/12/27 01:15:46;;;;;;;6.07;3.25;;;-0.30;99.90;;;;;;5050678;28;20489;-76
2021/12/27 01:18:13;;;;;;;3.97;3.15;;;-0.30;99.90;;;;;;5034080;28;20044;-76
2021/12/27 01:20:38;;;;;;;5.00;3.33;;;-0.30;99.90;;;;;;5082674;28;20102;-76
2021/12/27 01:23:06;;;;;;;6.53;4.05;;;-0.30;99.90;;;;;;5068344;28;20119;-76
2021/12/27 01:25:32;;;;;;;8.93;6.03;;;-0.30;99.90;;;;;;5034071;28;20604;-76
2021/12/27 01:27:58;;;;;;;14.07;7.05;;;-0.30;99.90;;;;;;5059970;28;20041;-76
2021/12/27 01:30:24;;;;;;;6.15;4.60;;;-0.30;99.90;;;;;;5050194;28;20396;-76
2021/12/27 01:32:56;;;;;;;15.90;7.68;;;-0.30;99.90;;;;;;5049634;28;20044;-76
2021/12/27 01:35:23;;;;;;;7.78;5.00;;;-0.30;99.90;;;;;;5083989;28;20107;-76
2021/12/27 01:37:50;;;;;;;13.38;8.02;;;-0.30;99.90;;;;;;5079663;28;20045;-75
2021/12/27 01:40:18;;;;;;;11.05;6.47;;;-0.40;99.90;;;;;;5050047;28;20497;-76
2021/12/27 01:43:10;;;;;;;8.80;6.00;;;-0.30;99.90;;;;;;5034043;28;20056;-76
2021/12/27 01:45:40;;;;;;;6.05;4.28;;;-0.30;99.90;;;;;;5078163;28;20048;-76
2021/12/27 01:48:08;;;;;;;7.07;5.20;;;-0.30;99.90;;;;;;5058383;28;20477;-75
2021/12/27 01:50:43;;;;;;;8.38;4.53;;;-0.30;99.90;;;;;;5034014;28;20123;-75
2021/12/27 01:53:10;;;;;;;4.90;2.92;;;-0.30;99.90;;;;;;5081628;28;20041;-75
2021/12/27 01:55:37;;;;;;;9.65;5.10;;;-0.30;99.90;;;;;;5033198;28;20051;-75
2021/12/27 01:58:03;;;;;;;5.63;3.90;;;-0.30;99.90;;;;;;5033440;28;20450;-75
2021/12/27 02:00:30;;;;;;;7.88;3.50;;;-0.40;99.90;;;;;;5062592;28;20111;-76
2021/12/27 02:02:55;;;;;;;9.82;4.78;;;-0.40;99.90;;;;;;5032533;28;20048;-76
2021/12/27 02:05:21;;;;;;;5.25;3.47;;;-0.30;99.90;;;;;;5048721;28;20042;-75
2021/12/27 02:07:47;;;;;;;6.53;4.47;;;-0.30;99.90;;;;;;5049309;28;20076;-76
2021/12/27 02:10:14;;;;;;;8.98;5.55;;;-0.30;99.90;;;;;;5046981;28;20056;-76
2021/12/27 02:12:41;;;;;;;9.35;5.22;;;-0.30;99.90;;;;;;5049630;28;20087;-76
2021/12/27 02:15:09;;;;;;;4.55;2.42;;;-0.30;99.90;;;;;;5048157;28;20132;-75
2021/12/27 02:17:41;;;;;;;6.68;4.38;;;-0.30;99.90;;;;;;5030843;28;20095;-76
2021/12/27 02:20:15;;;;;;;11.55;4.50;;;-0.30;99.90;;;;;;5030711;28;20592;-76
2021/12/27 02:22:40;;;;;;;10.05;3.92;;;-0.30;99.90;;;;;;5031432;28;20037;-75
2021/12/27 02:25:08;;;;;;;13.68;7.32;;;-0.30;99.90;;;;;;5032086;28;20032;-75
2021/12/27 02:27:35;;;;;;;6.68;3.55;;;-0.30;99.90;;;;;;5061869;28;20397;-76
2021/12/27 02:30:04;;;;;;;10.45;6.85;;;-0.30;99.90;;;;;;5045853;28;20563;-75
2021/12/27 02:32:30;;;;;;;6.53;4.43;;;-0.30;99.90;;;;;;5032068;28;20045;-76
2021/12/27 02:34:56;;;;;;;17.42;7.20;;;-0.30;99.90;;;;;;5048596;28;20134;-75
2021/12/27 02:37:22;;;;;;;12.13;6.43;;;-0.30;99.90;;;;;;5064365;28;20040;-75
2021/12/27 02:39:48;;;;;;;7.57;4.15;;;-0.30;99.90;;;;;;5047590;28;20447;-76
2021/12/27 02:42:19;;;;;;;13.05;7.40;;;-0.20;99.90;;;;;;5031228;28;20801;-75
2021/12/27 02:44:45;;;;;;;11.15;6.03;;;-0.20;99.90;;;;;;5048184;28;20037;-75
2021/12/27 02:47:13;;;;;;;9.60;6.05;;;-0.20;99.90;;;;;;5056096;28;20444;-76
2021/12/27 02:49:39;;;;;;;9.30;5.07;;;-0.20;99.90;;;;;;5049350;28;20115;-75
2021/12/27 02:52:05;;;;;;;7.78;5.47;;;-0.20;99.90;;;;;;5032567;28;20045;-76
2021/12/27 02:54:31;;;;;;;6.88;4.55;;;-0.20;99.90;;;;;;5048597;28;20036;-75
2021/12/27 02:56:56;;;;;;;7.63;4.45;;;-0.10;99.90;;;;;;5047560;28;20182;-76
2021/12/27 02:59:22;;;;;;;16.75;7.22;;;-0.10;99.90;;;;;;5048851;28;20132;-76
2021/12/27 03:01:48;;;;;;;12.73;8.13;;;-0.10;99.90;;;;;;5032977;28;20025;-76
2021/12/27 03:04:13;;;;;;;11.13;6.20;;;-0.10;99.90;;;;;;5048394;28;20086;-76
2021/12/27 03:06:39;;;;;;;6.22;5.43;;;-0.10;99.90;;;;;;5048855;28;20036;-76
2021/12/27 03:09:05;;;;;;;9.10;6.13;;;-0.10;99.90;;;;;;5048541;28;20043;-75
2021/12/27 03:11:31;;;;;;;16.15;6.90;;;-0.10;99.90;;;;;;5044271;28;20564;-75
2021/12/27 03:13:56;;;;;;;8.40;5.13;;;0.00;99.90;;;;;;5048711;28;20048;-76
2021/12/27 03:16:23;;;;;;;12.60;7.35;;;0.00;99.90;;;;;;5081807;28;20041;-76
2021/12/27 03:18:54;;;;;;;7.30;5.07;;;0.00;99.90;;;;;;5047377;28;20048;-75
2021/12/27 03:21:21;;;;;;;18.27;8.63;;;0.00;99.90;;;;;;5049005;28;20112;-76
2021/12/27 03:23:48;;;;;;;8.55;5.60;;;0.00;99.90;;;;;;5061707;28;20065;-76
2021/12/27 03:26:16;;;;;;;9.90;6.22;;;0.00;99.90;;;;;;5030652;28;20098;-76
2021/12/27 03:28:43;;;;;;;12.95;6.60;;;0.00;99.90;;;;;;5047083;28;20036;-76
2021/12/27 03:31:10;;;;;;;6.05;3.92;;;0.00;99.90;;;;;;5045417;28;20055;-76
2021/12/27 03:33:36;;;;;;;16.40;7.70;;;0.00;99.90;;;;;;5045981;28;20559;-76
2021/12/27 03:36:05;;;;;;;8.95;5.75;;;0.10;99.90;;;;;;5030451;28;20041;-76
2021/12/27 03:38:48;;;;;;;9.02;5.75;;;0.00;99.90;;;;;;5063911;28;20037;-76
2021/12/27 03:41:16;;;;;;;9.40;5.53;;;0.00;99.90;;;;;;5063003;28;20520;-76
2021/12/27 03:43:42;;;;;;;8.93;5.63;;;0.00;99.90;;;;;;5045166;28;20072;-75
2021/12/27 03:46:09;;;;;;;14.70;6.35;;;0.00;99.90;;;;;;5048058;28;20084;-76
2021/12/27 03:48:35;;;;;;;6.10;4.53;;;0.00;99.90;;;;;;5031480;28;20492;-76
2021/12/27 03:51:02;;;;;;;7.88;5.25;;;0.10;99.90;;;;;;5048311;28;20071;-76
2021/12/27 03:53:29;;;;;;;2.13;1.80;;;0.00;99.90;;;;;;5047819;28;20037;-76
2021/12/27 03:55:56;;;;;;;10.25;6.25;;;0.00;99.90;;;;;;5030515;28;20083;-75
2021/12/27 03:58:34;;;;;;;5.15;3.92;;;0.10;99.90;;;;;;5047079;28;20045;-76
2021/12/27 04:01:13;;;;;;;8.88;5.95;;;0.00;99.90;;;;;;5031591;28;20048;-76
2021/12/27 04:03:39;;;;;;;4.55;2.92;;;0.00;99.90;;;;;;5063331;28;20037;-76
2021/12/27 04:06:05;;;;;;;9.65;5.68;;;0.10;99.90;;;;;;5029335;28;20040;-76
2021/12/27 04:08:31;;;;;;;5.65;4.43;;;0.10;99.90;;;;;;5030537;28;20044;-76
2021/12/27 04:10:57;;;;;;;17.05;8.88;;;0.10;99.90;;;;;;5047062;28;20041;-76
2021/12/27 04:13:23;;;;;;;6.75;3.45;;;0.10;99.90;;;;;;5078270;28;20076;-75
2021/12/27 04:15:50;;;;;;;8.35;4.32;;;0.10;99.90;;;;;;5045902;28;20037;-76
2021/12/27 04:18:17;;;;;;;7.22;5.53;;;0.10;99.90;;;;;;5044253;28;20128;-76
2021/12/27 04:20:43;;;;;;;9.65;5.97;;;0.10;99.90;;;;;;5029561;28;20079;-76
2021/12/27 04:23:09;;;;;;;1.52;1.40;;;0.10;99.90;;;;;;5047732;28;20384;-76
2021/12/27 04:25:35;;;;;;;6.85;4.72;;;0.10;99.90;;;;;;5046148;28;20045;-76
2021/12/27 04:28:01;;;;;;;5.07;3.15;;;0.00;99.90;;;;;;5045574;28;20044;-76
2021/12/27 04:30:26;;;;;;;7.07;5.65;;;0.10;99.90;;;;;;5079155;28;20098;-76
2021/12/27 04:32:52;;;;;;;13.00;7.18;;;0.10;99.90;;;;;;5046293;28;20512;-76
2021/12/27 04:35:20;;;;;;;9.77;5.60;;;0.10;99.90;;;;;;5029758;28;20112;-76
2021/12/27 04:37:47;;;;;;;6.05;4.03;;;0.10;99.90;;;;;;5029821;28;20155;-76
2021/12/27 04:40:15;;;;;;;4.50;3.30;;;0.10;99.90;;;;;;5029854;28;20040;-76
2021/12/27 04:42:45;;;;;;;9.68;5.70;;;0.10;99.90;;;;;;5078540;28;20033;-76
2021/12/27 04:45:13;;;;;;;13.02;6.22;;;0.10;99.90;;;;;;5047054;28;20049;-76
2021/12/27 04:47:39;;;;;;;6.70;4.00;;;0.10;99.90;;;;;;5043353;28;20508;-76
2021/12/27 04:50:06;;;;;;;16.15;7.32;;;0.10;99.90;;;;;;5063134;28;20036;-76
2021/12/27 04:52:33;;;;;;;2.67;2.47;;;0.20;99.90;;;;;;5046818;28;20122;-76
2021/12/27 04:54:58;;;;;;;11.15;5.68;;;0.20;99.90;;;;;;5029760;28;20037;-76
2021/12/27 04:57:24;;;;;;;3.50;3.03;;;0.20;99.90;;;;;;5026986;28;20056;-76
2021/12/27 04:59:50;;;;;;;3.45;2.88;;;0.10;99.90;;;;;;5056819;28;20159;-76
2021/12/27 05:02:16;;;;;;;12.23;6.45;;;0.20;99.90;;;;;;5046337;28;20041;-76
2021/12/27 05:04:42;;;;;;;5.93;4.30;;;0.20;99.90;;;;;;5046466;28;20044;-76
2021/12/27 05:07:08;;;;;;;15.05;8.15;;;0.20;99.90;;;;;;5029521;28;20044;-76
2021/12/27 05:09:34;;;;;;;6.03;2.90;;;0.20;99.90;;;;;;5046521;28;20037;-76
2021/12/27 05:12:00;;;;;;;5.47;3.13;;;0.20;99.90;;;;;;5028203;28;20041;-76
2021/12/27 05:14:25;;;;;;;5.22;4.07;;;0.20;99.90;;;;;;5046430;28;20080;-76
2021/12/27 05:16:51;;;;;;;12.07;6.90;;;0.20;99.90;;;;;;5028966;28;20401;-75
2021/12/27 05:19:17;;;;;;;14.82;7.82;;;0.20;99.90;;;;;;5030067;28;20124;-75
2021/12/27 05:21:42;;;;;;;12.43;7.22;;;0.20;99.90;;;;;;5030590;28;20052;-76
2021/12/27 05:24:08;;;;;;;14.25;8.00;;;0.20;99.90;;;;;;5045078;28;20147;-76
2021/12/27 05:26:34;;;;;;;16.77;7.47;;;0.20;99.90;;;;;;5046664;28;20091;-76
2021/12/27 05:29:00;;;;;;;15.13;7.70;;;0.20;99.90;;;;;;5030111;28;20071;-76
2021/12/27 05:31:25;;;;;;;8.63;5.75;;;0.10;99.90;;;;;;5043425;28;20040;-75
2021/12/27 05:33:51;;;;;;;11.13;6.22;;;0.10;99.90;;;;;;5046067;28;20136;-75
2021/12/27 05:36:17;;;;;;;11.57;6.25;;;0.10;99.90;;;;;;5032121;28;20124;-76
2021/12/27 05:38:43;;;;;;;14.27;7.78;;;0.10;99.90;;;;;;5064520;28;20033;-75
2021/12/27 05:41:09;;;;;;;13.30;7.90;;;0.10;99.90;;;;;;5033199;28;20052;-76
2021/12/27 05:43:35;;;;;;;10.85;6.35;;;0.20;99.90;;;;;;5083475;28;20044;-76
2021/12/27 05:46:02;;;;;;;10.18;5.80;;;0.20;99.90;;;;;;5032440;28;20412;-76
2021/12/27 05:48:28;;;;;;;13.05;7.30;;;0.20;99.90;;;;;;5032043;28;20121;-76
2021/12/27 05:50:53;;;;;;;14.02;7.28;;;0.20;99.90;;;;;;5084229;28;20033;-75
2021/12/27 05:53:20;;;;;;;5.65;5.10;;;0.20;99.90;;;;;;5049500;28;20490;-76
2021/12/27 05:55:46;;;;;;;9.55;4.10;;;0.20;99.90;;;;;;5049063;28;21452;-76
2021/12/27 05:58:12;;;;;;;14.82;6.78;;;0.20;99.90;;;;;;5031901;28;20048;-76
2021/12/27 06:00:39;;;;;;;13.60;6.32;;;0.20;99.90;;;;;;5049011;28;20040;-76
2021/12/27 06:03:05;;;;;;;8.88;5.68;;;0.20;99.90;;;;;;5054526;28;20040;-76
2021/12/27 06:05:31;;;;;;;17.65;8.10;;;0.20;99.90;;;;;;5064983;28;20037;-76
2021/12/27 06:07:57;;;;;;;19.48;9.05;;;0.20;99.90;;;;;;5049665;28;20116;-76
2021/12/27 06:10:23;;;;;;;11.35;6.05;;;0.20;99.90;;;;;;5033200;28;20048;-76
2021/12/27 06:12:49;;;;;;;9.93;5.45;;;0.20;99.90;;;;;;5065732;28;20037;-76
2021/12/27 06:15:15;;;;;;;5.80;3.55;;;0.20;99.90;;;;;;5031285;28;20041;-76
2021/12/27 06:17:42;;;;;;;2.08;1.52;;;0.30;99.90;;;;;;5048879;28;20082;-75
2021/12/27 06:20:13;;;;;;;15.43;8.90;;;0.20;99.90;;;;;;5047849;28;20038;-76
2021/12/27 06:22:45;;;;;;;20.38;7.70;;;0.30;99.90;;;;;;5047682;28;20060;-76
2021/12/27 06:25:11;;;;;;;6.47;4.93;;;0.30;99.90;;;;;;5035184;28;20060;-76
2021/12/27 06:27:40;;;;;;;8.98;5.22;;;0.30;99.90;;;;;;5049390;28;20123;-76
2021/12/27 06:30:10;;;;;;;10.70;5.65;;;0.30;99.90;;;;;;5081206;28;20175;-76
2021/12/27 06:32:36;;;;;;;14.00;8.02;;;0.30;99.90;;;;;;5048781;28;20052;-76
2021/12/27 06:35:05;;;;;;;8.88;3.92;;;0.30;99.90;;;;;;5047912;28;20086;-76
2021/12/27 06:37:31;;;;;;;22.75;9.45;;;0.40;99.90;;;;;;5047851;28;20143;-77
2021/12/27 06:39:57;;;;;;;15.57;8.27;;;0.40;99.90;;;;;;5046509;28;20040;-76
2021/12/27 06:42:23;;;;;;;8.50;4.60;;;0.40;99.90;;;;;;5049349;28;20367;-76
2021/12/27 06:44:48;;;;;;;3.20;2.67;;;0.40;99.90;;;;;;5031910;28;20043;-76
2021/12/27 06:47:14;;;;;;;14.82;7.43;;;0.40;99.90;;;;;;5046021;28;20109;-76
2021/12/27 06:49:41;;;;;;;15.88;6.45;;;0.40;99.90;;;;;;5047725;28;20041;-75
2021/12/27 06:52:07;;;;;;;8.10;2.70;;;0.30;99.90;;;;;;5048359;28;20045;-76
2021/12/27 06:54:33;;;;;;;10.45;6.57;;;0.40;99.90;;;;;;5046242;28;20056;-76
2021/12/27 06:57:00;;;;;;;12.88;7.72;;;0.40;99.90;;;;;;5031447;28;20399;-76
2021/12/27 06:59:29;;;;;;;10.65;4.82;;;0.40;99.90;;;;;;5048068;28;20142;-76
2021/12/27 07:01:55;;;;;;;19.27;6.70;;;0.40;99.90;;;;;;5048481;28;20044;-76
2021/12/27 07:04:21;;;;;;;16.60;7.93;;;0.40;99.90;;;;;;5046229;28;20089;-76
2021/12/27 07:06:47;;;;;;;4.80;3.65;;;0.50;99.90;;;;;;5048950;28;20119;-76
2021/12/27 07:09:14;;;;;;;10.10;4.65;;;0.50;99.90;;;;;;5031601;28;20049;-76
2021/12/27 07:11:41;;;;;;;10.70;3.45;;;0.50;99.90;;;;;;5079394;28;20052;-76
2021/12/27 07:14:07;;;;;;;15.50;6.00;;;0.50;99.90;;;;;;5047837;28;20515;-76
2021/12/27 07:16:33;;;;;;;18.90;7.00;;;0.50;99.90;;;;;;5031484;28;20045;-76
2021/12/27 07:18:59;;;;;;;8.32;5.07;;;0.50;99.90;;;;;;5031284;28;20040;-75
2021/12/27 07:21:25;;;;;;;12.35;6.10;;;0.60;99.90;;;;;;5047802;28;20294;-76
2021/12/27 07:23:51;;;;;;;7.63;5.18;;;0.60;99.90;;;;;;5031413;28;20033;-76
2021/12/27 07:26:16;;;;;;;11.48;5.03;;;0.60;99.90;;;;;;5030901;28;20044;-76
2021/12/27 07:28:43;;;;;;;8.15;5.50;;;0.60;99.90;;;;;;5046182;28;20168;-76
2021/12/27 07:31:10;;;;;;;9.02;5.55;;;0.60;99.90;;;;;;5030810;28;20040;-76
2021/12/27 07:33:36;;;;;;;14.70;6.72;;;0.60;99.90;;;;;;5047734;28;20064;-76
2021/12/27 07:36:04;;;;;;;15.70;9.52;;;0.60;99.90;;;;;;5030575;28;20057;-76
2021/12/27 07:38:29;;;;;;;13.95;8.20;;;0.60;99.90;;;;;;5048676;28;20048;-75
2021/12/27 07:40:55;;;;;;;16.65;7.65;;;0.60;99.90;;;;;;5042190;28;20041;-76
2021/12/27 07:43:22;;;;;;;14.13;8.57;;;0.60;99.90;;;;;;5038959;28;20045;-76
2021/12/27 07:45:48;;;;;;;17.42;8.27;;;0.60;99.90;;;;;;5038665;28;20501;-75
2021/12/27 07:48:16;;;;;;;12.27;7.25;;;0.60;99.90;;;;;;5028128;28;20048;-76
2021/12/27 07:50:42;;;;;;;12.50;6.05;;;0.60;99.90;;;;;;5026320;28;20500;-76
2021/12/27 07:53:08;;;;;;;7.68;4.00;;;0.60;99.90;;;;;;5046816;28;20044;-77
2021/12/27 07:55:34;;;;;;;14.55;7.43;;;0.60;99.90;;;;;;5042444;28;20111;-77
2021/12/27 07:58:03;;;;;;;19.00;8.98;;;0.60;99.90;;;;;;5023335;28;20144;-77
2021/12/27 08:00:29;;;;;;;20.80;7.55;;;0.60;99.90;;;;;;5027509;28;20048;-77
2021/12/27 08:02:55;;;;;;;16.23;7.35;;;0.60;99.90;;;;;;5040058;28;20048;-77
2021/12/27 08:05:21;;;;;;;11.70;6.07;;;0.60;99.90;;;;;;5039050;28;20037;-76
2021/12/27 08:07:47;;;;;;;6.15;4.55;;;0.60;99.90;;;;;;5041174;28;20044;-76
2021/12/27 08:10:14;;;;;;;10.27;5.63;;;0.60;99.90;;;;;;5041160;28;20421;-76
2021/12/27 08:12:41;;;;;;;18.67;9.20;;;0.60;99.90;;;;;;5041683;28;20044;-76
2021/12/27 08:15:09;;;;;;;9.55;5.95;;;0.60;99.90;;;;;;5044732;28;20123;-76
2021/12/27 08:17:36;;;;;;;11.25;6.53;;;0.60;99.90;;;;;;5023619;28;20053;-76
2021/12/27 08:20:03;;;;;;;19.85;7.38;;;0.70;99.90;;;;;;5077817;28;20047;-76
2021/12/27 08:22:29;;;;;;;17.85;9.95;;;0.70;99.90;;;;;;5055004;28;20459;-76
2021/12/27 08:24:54;;;;;;;68.82;9.55;;;0.60;99.90;;;;;;5043313;28;20041;-76
2021/12/27 08:27:24;;;;;;;11.73;6.05;;;0.70;99.90;;;;;;5075800;28;20519;-76
2021/12/27 08:29:50;;;;;;;18.70;9.15;;;0.70;99.90;;;;;;5027043;28;20208;-76
2021/12/27 08:32:16;;;;;;;18.20;5.82;;;0.70;99.90;;;;;;5038198;28;20056;-76
2021/12/27 08:34:41;;;;;;;16.70;7.30;;;0.70;99.90;;;;;;5044843;28;20025;-76
2021/12/27 08:37:08;;;;;;;12.05;4.57;;;0.70;99.90;;;;;;5044237;28;20048;-77
2021/12/27 08:39:34;;;;;;;20.50;9.55;;;0.70;99.90;;;;;;5046713;28;20136;-76
2021/12/27 08:42:03;;;;;;;29.77;11.55;;;0.70;99.90;;;;;;5079767;28;20033;-76
2021/12/27 08:44:29;;;;;;;20.90;9.48;;;0.70;99.90;;;;;;5046065;28;20041;-76
2021/12/27 08:46:54;;;;;;;9.00;5.15;;;0.70;99.90;;;;;;5030737;28;20508;-77
2021/12/27 08:49:20;;;;;;;16.23;6.88;;;0.70;99.90;;;;;;5063102;28;20037;-76
2021/12/27 08:51:46;;;;;;;12.57;9.15;;;0.80;99.90;;;;;;5047710;28;20047;-76
2021/12/27 08:54:12;;;;;;;33.83;9.50;;;0.80;99.90;;;;;;5047556;28;20053;-76
2021/12/27 08:56:38;;;;;;;36.50;15.60;;;0.80;99.90;;;;;;5028998;28;20079;-76
2021/12/27 08:59:06;;;;;;;9.65;4.10;;;0.80;99.90;;;;;;5079070;28;20468;-76
2021/12/27 09:01:32;;;;;;;12.52;6.15;;;0.80;99.90;;;;;;5046832;28;20036;-76
2021/12/27 09:03:58;;;;;;;28.75;11.43;;;0.80;99.90;;;;;;5030154;28;20033;-77
2021/12/27 09:06:24;;;;;;;22.58;10.45;;;0.80;99.90;;;;;;5040339;28;20516;-77
2021/12/27 09:08:50;;;;;;;19.40;8.90;;;0.90;99.90;;;;;;5077152;28;20086;-76
2021/12/27 09:11:15;;;;;;;14.05;6.82;;;0.80;99.90;;;;;;5031883;28;20120;-76
2021/12/27 09:13:42;;;;;;;18.98;7.47;;;0.90;99.90;;;;;;5048739;28;20075;-76
2021/12/27 09:16:10;;;;;;;14.80;7.22;;;0.90;99.90;;;;;;5031019;28;20041;-76
2021/12/27 09:18:37;;;;;;;10.88;6.00;;;0.90;99.90;;;;;;5048218;28;20102;-76
2021/12/27 09:21:03;;;;;;;14.80;5.38;;;0.90;99.90;;;;;;5050377;28;20130;-77
2021/12/27 09:23:30;;;;;;;15.35;6.95;;;0.90;99.90;;;;;;5086098;28;20444;-77
2021/12/27 09:25:55;;;;;;;20.15;5.88;;;0.90;99.90;;;;;;5033791;28;20135;-76
2021/12/27 09:28:21;;;;;;;4.78;3.15;;;0.90;99.90;;;;;;5050567;28;20049;-77
2021/12/27 09:30:47;;;;;;;18.73;7.00;;;1.00;99.90;;;;;;5048997;28;20056;-76
2021/12/27 09:33:13;;;;;;;6.60;4.90;;;1.00;99.90;;;;;;5064689;28;20037;-77
2021/12/27 09:35:39;;;;;;;14.95;6.95;;;1.00;99.90;;;;;;5050817;28;20041;-76
2021/12/27 09:38:08;;;;;;;16.45;8.55;;;1.00;99.90;;;;;;5049468;28;20463;-77
2021/12/27 09:40:34;;;;;;;13.20;6.32;;;1.00;99.90;;;;;;5034818;28;20167;-77
2021/12/27 09:43:00;;;;;;;11.30;6.22;;;1.00;99.90;;;;;;5033837;28;20036;-77
2021/12/27 09:45:26;;;;;;;13.27;7.30;;;1.10;99.90;;;;;;5050429;28;20049;-77
2021/12/27 09:47:52;;;;;;;13.65;8.45;;;1.00;99.90;;;;;;5049898;28;20066;-77
2021/12/27 09:50:40;;;;;;;29.10;10.00;;;1.10;99.90;;;;;;5034233;28;20039;-77
2021/12/27 09:53:07;;;;;;;19.25;8.27;;;1.10;99.90;;;;;;5050750;28;20041;-78
2021/12/27 09:55:32;;;;;;;9.18;5.28;;;1.10;99.90;;;;;;5032203;28;20044;-78
2021/12/27 09:57:59;;;;;;;12.25;6.15;;;1.10;99.90;;;;;;5033314;28;20409;-78
2021/12/27 10:00:27;;;;;;;16.00;6.25;;;1.10;99.90;;;;;;5050734;28;20048;-78
2021/12/27 10:02:56;;;;;;;13.82;8.32;;;1.10;99.90;;;;;;5033987;28;20048;-78
2021/12/27 10:05:24;;;;;;;16.73;7.95;;;1.20;99.90;;;;;;5047319;28;20049;-78
2021/12/27 10:07:51;;;;;;;21.73;9.75;;;1.20;99.90;;;;;;5051863;28;20131;-78
2021/12/27 10:10:18;;;;;;;7.50;5.35;;;1.20;99.90;;;;;;5032696;28;20084;-78
2021/12/27 10:12:45;;;;;;;14.52;7.22;;;1.20;99.90;;;;;;5033968;28;20102;-78
2021/12/27 10:15:39;;;;;;;25.10;9.55;;;1.20;99.90;;;;;;5049791;28;20118;-78
2021/12/27 10:18:15;;;;;;;23.95;11.18;;;1.20;99.90;;;;;;5032325;28;20428;-78
2021/12/27 10:20:42;;;;;;;21.35;8.55;;;1.30;99.90;;;;;;5048020;28;20040;-78
2021/12/27 10:23:09;;;;;;;9.50;6.32;;;1.30;99.90;;;;;;5047145;28;20044;-78
2021/12/27 10:25:36;;;;;;;12.93;6.03;;;1.30;99.90;;;;;;5034003;28;20037;-78
2021/12/27 10:28:03;;;;;;;12.93;5.82;;;1.30;99.90;;;;;;5032311;28;20048;-78
2021/12/27 10:30:32;;;;;;;30.38;8.65;;;1.30;99.90;;;;;;5046403;28;20128;-78
2021/12/27 10:33:24;;;;;;;25.20;7.47;;;1.30;99.90;;;;;;5054335;28;20105;-78
2021/12/27 10:35:56;;;;;;;14.52;8.35;;;1.40;99.90;;;;;;5043461;28;20059;-78
2021/12/27 10:38:24;;;;;;;21.10;9.48;;;1.40;99.90;;;;;;5056762;28;20040;-78
2021/12/27 10:40:58;;;;;;;19.17;7.50;;;1.40;99.90;;;;;;5029666;28;20147;-78
2021/12/27 10:43:43;;;;;;;8.57;6.03;;;1.50;99.90;;;;;;5025484;28;20079;-78
2021/12/27 10:46:12;;;;;;;5.25;3.75;;;1.50;99.90;;;;;;5035195;28;20132;-78
2021/12/27 10:48:41;;;;;;;16.20;5.93;;;1.60;99.90;;;;;;5025644;28;20047;-78
2021/12/27 10:51:07;;;;;;;17.30;8.25;;;1.60;99.90;;;;;;5058069;28;20123;-79
2021/12/27 10:53:50;;;;;;;15.75;8.57;;;1.60;99.90;;;;;;5025999;28;20374;-79
2021/12/27 10:56:22;;;;;;;12.68;6.25;;;1.70;99.90;;;;;;5074597;28;20049;-78
2021/12/27 10:58:59;;;;;;;23.02;7.32;;;1.70;99.90;;;;;;5027884;28;20045;-78
2021/12/27 11:01:27;;;;;;;17.25;7.07;;;1.70;99.90;;;;;;5046595;28;20060;-78
2021/12/27 11:03:58;;;;;;;13.85;5.68;;;1.70;99.90;;;;;;5046519;28;20041;-79
2021/12/27 11:06:27;;;;;;;28.95;11.70;;;1.80;99.90;;;;;;5030339;28;20041;-78
2021/12/27 11:08:55;;;;;;;3.25;2.95;;;1.80;99.90;;;;;;5029427;28;20082;-78
2021/12/27 11:11:22;;;;;;;4.85;2.88;;;1.80;99.90;;;;;;5048144;28;20037;-78
2021/12/27 11:13:51;;;;;;;8.23;5.40;;;1.80;99.90;;;;;;5042187;28;20123;-78
2021/12/27 11:16:17;;;;;;;25.77;9.55;;;1.90;99.90;;;;;;5040988;28;20452;-78
2021/12/27 11:18:44;;;;;;;9.50;4.82;;;1.90;99.90;;;;;;5045543;28;20049;-77
2021/12/27 11:21:19;;;;;;;8.23;5.70;;;1.90;99.90;;;;;;5078359;28;20041;-77
2021/12/27 11:23:52;;;;;;;5.18;3.72;;;2.00;99.90;;;;;;5059302;28;20041;-77
2021/12/27 11:26:29;;;;;;;30.33;9.05;;;2.00;99.90;;;;;;5029631;28;20041;-77
2021/12/27 11:29:16;;;;;;;12.20;7.57;;;2.00;99.90;;;;;;5046770;28;20056;-77
2021/12/27 11:31:44;;;;;;;11.23;4.88;;;2.00;99.90;;;;;;5045958;28;20060;-77
2021/12/27 11:34:13;;;;;;;16.83;8.80;;;2.00;99.90;;;;;;5025639;28;20063;-77
2021/12/27 11:36:42;;;;;;;25.73;9.85;;;2.00;99.90;;;;;;5040399;28;20099;-78
2021/12/27 11:39:24;;;;;;;5.88;3.80;;;2.00;99.90;;;;;;5077735;28;20037;-77
2021/12/27 11:42:05;;;;;;;28.33;9.90;;;2.10;99.90;;;;;;5024213;28;20037;-77
2021/12/27 11:44:53;;;;;;;25.10;4.50;;;2.00;99.90;;;;;;5045480;28;20045;-77
2021/12/27 11:47:23;;;;;;;63.58;13.30;;;2.00;99.90;;;;;;5049394;28;20091;-78
2021/12/27 11:49:52;;;;;;;21.48;5.20;;;2.00;99.90;;;;;;5049971;28;20394;-77
2021/12/27 11:52:24;;;;;;;30.98;10.32;;;2.00;99.90;;;;;;5034252;28;20430;-77
2021/12/27 11:55:01;;;;;;;18.15;7.70;;;2.00;99.90;;;;;;5049777;28;20448;-77
2021/12/27 11:57:42;;;;;;;42.35;10.23;;;2.00;99.90;;;;;;5049526;28;20037;-78
2021/12/27 12:00:35;;;;;;;14.98;7.45;;;2.00;99.90;;;;;;5034791;28;20041;-78
2021/12/27 12:03:01;;;;;;;32.40;10.05;;;2.10;99.90;;;;;;5010663;28;20093;-77
2021/12/27 12:05:45;;;;;;;15.63;6.55;;;2.10;99.90;;;;;;5029259;28;20134;-77
2021/12/27 12:08:13;;;;;;;14.95;6.35;;;2.10;99.90;;;;;;5034076;28;20037;-78
2021/12/27 12:10:56;;;;;;;22.45;10.30;;;2.20;99.90;;;;;;5013301;28;20061;-77
2021/12/27 12:13:26;;;;;;;23.30;10.13;;;2.20;99.90;;;;;;5029575;28;20045;-77
2021/12/27 12:15:59;;;;;;;14.50;7.07;;;2.30;99.90;;;;;;5029401;28;20041;-77
2021/12/27 12:18:26;;;;;;;25.10;11.30;;;2.30;99.90;;;;;;5013295;28;20069;-78
2021/12/27 12:20:52;;;;;;;2.35;1.90;;;2.40;99.90;;;;;;5030411;28;20323;-77
2021/12/27 12:23:17;;;;;;;19.38;8.43;;;2.40;99.90;;;;;;5029917;28;20041;-77
2021/12/27 12:25:43;;;;;;;20.30;9.98;;;2.40;99.90;;;;;;5054714;28;20030;-77
2021/12/27 12:28:11;;;;;;;31.58;12.85;;;2.40;99.90;;;;;;5031595;28;20056;-77
2021/12/27 12:30:45;;;;;;;28.65;11.70;;;2.50;99.90;;;;;;5058505;28;20041;-77
2021/12/27 12:33:16;;;;;;;32.80;12.68;;;2.50;99.90;;;;;;5045847;28;20041;-77
2021/12/27 12:35:44;;;;;;;36.03;11.27;;;2.50;99.90;;;;;;5046957;28;20047;-78
2021/12/27 12:38:12;;;;;;;30.60;9.55;;;2.50;99.90;;;;;;5047199;28;20044;-78
2021/12/27 12:40:39;;;;;;;4.25;2.30;;;2.40;99.90;;;;;;5035470;28;20041;-78
2021/12/27 12:43:05;;;;;;;23.10;10.85;;;2.40;99.90;;;;;;5048264;28;20037;-78
2021/12/27 12:45:32;;;;;;;38.75;10.38;;;2.40;99.90;;;;;;5051530;28;20037;-78
2021/12/27 12:47:59;;;;;;;28.33;7.82;;;2.50;99.90;;;;;;5038561;28;20048;-78
2021/12/27 12:50:25;;;;;;;12.43;6.00;;;2.50;99.90;;;;;;5040723;28;20051;-77
2021/12/27 12:52:54;;;;;;;14.75;5.68;;;2.50;99.90;;;;;;5037973;28;20090;-78
2021/12/27 12:55:25;;;;;;;6.03;3.55;;;2.50;99.90;;;;;;5055022;28;20059;-77